Time;durP1;ratioP1;P1;durP2;ratioP2;P2;SDS_P1;SDS_P2;PMS_P1;PMS_P2;Temp;Humidity;BMP_temperature;BMP_pressure;BME280_temperature;BME280_humidity;BME280_pressure;Samples;Min_cycle;Max_cycle;Signal;HPM_P1;HPM_P2
2023/10/07 00:02:51;;;;;;;13.20;2.63;;;15.60;99.90;;;;;;5058970;28;20060;-42
2023/10/07 00:05:20;;;;;;;8.05;2.20;;;15.70;99.90;;;;;;5064846;28;20069;-40
2023/10/07 00:07:46;;;;;;;13.27;2.10;;;15.70;99.90;;;;;;5054069;28;20065;-41
2023/10/07 00:10:25;;;;;;;11.48;2.55;;;15.70;99.90;;;;;;5042116;28;20912;-41
2023/10/07 00:12:52;;;;;;;11.40;2.03;;;15.70;99.90;;;;;;5055578;28;20456;-41
2023/10/07 00:15:21;;;;;;;11.73;2.10;;;15.80;99.90;;;;;;5060426;28;20056;-41
2023/10/07 00:17:47;;;;;;;13.27;2.30;;;15.80;99.90;;;;;;5061540;28;20040;-42
2023/10/07 00:20:17;;;;;;;14.50;2.55;;;15.80;99.90;;;;;;5060545;28;20492;-41
2023/10/07 00:22:48;;;;;;;15.85;2.72;;;15.90;99.90;;;;;;5061445;28;20459;-42
2023/10/07 00:25:19;;;;;;;10.00;2.17;;;15.90;99.90;;;;;;5056002;28;20052;-43
2023/10/07 00:27:48;;;;;;;11.70;2.20;;;15.90;99.90;;;;;;5064659;28;20052;-42
2023/10/07 00:30:20;;;;;;;12.95;2.90;;;15.90;99.90;;;;;;5066402;28;20491;-43
2023/10/07 00:32:46;;;;;;;11.13;3.00;;;15.90;99.90;;;;;;5064068;28;20052;-43
2023/10/07 00:35:14;;;;;;;11.15;2.67;;;16.00;99.90;;;;;;5067480;28;20049;-43
2023/10/07 00:37:43;;;;;;;12.30;2.20;;;16.00;99.90;;;;;;5068572;28;20064;-43
2023/10/07 00:42:55;;;;;;;7.30;2.15;;;16.00;99.90;;;;;;5045630;28;20048;-43
2023/10/07 00:45:24;;;;;;;17.60;3.75;;;16.00;99.90;;;;;;5065776;28;20414;-42
2023/10/07 00:47:52;;;;;;;8.85;3.13;;;16.00;99.90;;;;;;5045005;28;20063;-42
2023/10/07 00:50:20;;;;;;;9.65;2.05;;;16.00;99.90;;;;;;5060105;28;20110;-43
2023/10/07 00:55:35;;;;;;;8.55;2.72;;;16.00;99.90;;;;;;5062501;28;20110;-42
2023/10/07 00:58:13;;;;;;;10.95;2.67;;;16.10;99.90;;;;;;5064378;28;20048;-43
2023/10/07 01:03:47;;;;;;;7.68;2.10;;;16.10;99.90;;;;;;5052427;28;20600;-40
2023/10/07 01:08:49;;;;;;;13.30;3.03;;;16.10;99.90;;;;;;5055713;28;20040;-43
2023/10/07 01:11:19;;;;;;;10.18;2.50;;;16.10;99.90;;;;;;5044141;28;21649;-43
2023/10/07 01:13:50;;;;;;;8.88;2.72;;;16.10;99.90;;;;;;5063425;28;20057;-42
2023/10/07 01:19:27;;;;;;;13.50;2.80;;;16.20;99.90;;;;;;5044275;28;20041;-43
2023/10/07 01:27:16;;;;;;;8.00;2.50;;;16.30;99.90;;;;;;5043946;28;20513;-43
2023/10/07 01:29:42;;;;;;;10.13;2.30;;;16.40;99.90;;;;;;5056753;28;20056;-43
2023/10/07 01:32:15;;;;;;;11.07;3.13;;;16.30;99.90;;;;;;5045107;28;20510;-42
2023/10/07 01:34:47;;;;;;;14.43;2.25;;;16.40;99.90;;;;;;5064621;28;20048;-42
2023/10/07 01:37:21;;;;;;;9.63;3.03;;;16.40;99.90;;;;;;5066396;28;20529;-43
2023/10/07 01:39:49;;;;;;;10.30;2.60;;;16.40;99.90;;;;;;5048409;28;20395;-42
2023/10/07 01:42:26;;;;;;;7.35;2.50;;;16.40;99.90;;;;;;5052838;28;20041;-43
2023/10/07 01:44:57;;;;;;;8.68;2.55;;;16.40;99.90;;;;;;5048578;28;20541;-43
2023/10/07 01:47:24;;;;;;;9.95;2.70;;;16.40;99.90;;;;;;5061104;28;20064;-42
2023/10/07 01:49:54;;;;;;;9.23;2.13;;;16.30;99.90;;;;;;5061870;28;20533;-41
2023/10/07 01:52:26;;;;;;;15.38;3.00;;;16.30;99.90;;;;;;5066232;28;20063;-43
2023/10/07 01:54:58;;;;;;;13.95;2.83;;;16.40;99.90;;;;;;5056320;28;20102;-43
2023/10/07 01:57:24;;;;;;;9.00;2.37;;;16.30;99.90;;;;;;5055086;28;20872;-42
2023/10/07 01:59:52;;;;;;;10.80;2.90;;;16.40;99.90;;;;;;5071741;28;20905;-42
2023/10/07 02:02:25;;;;;;;10.02;3.03;;;16.30;99.90;;;;;;5066034;28;20142;-43
2023/10/07 02:04:54;;;;;;;9.68;2.28;;;16.30;99.90;;;;;;5043610;28;20701;-42
2023/10/07 02:07:21;;;;;;;11.23;2.58;;;16.30;99.90;;;;;;5070618;28;20160;-43
2023/10/07 02:09:48;;;;;;;10.15;2.25;;;16.30;99.90;;;;;;5062014;28;20056;-40
2023/10/07 02:12:18;;;;;;;14.98;3.33;;;16.30;99.90;;;;;;5046924;28;20060;-42
2023/10/07 02:14:44;;;;;;;13.30;2.83;;;16.30;99.90;;;;;;5054460;28;20518;-41
2023/10/07 02:17:13;;;;;;;14.93;4.00;;;16.40;99.90;;;;;;5055690;28;20044;-42
2023/10/07 02:19:41;;;;;;;12.30;3.30;;;16.40;99.90;;;;;;5055335;28;20485;-42
2023/10/07 02:22:08;;;;;;;10.45;2.35;;;16.40;99.90;;;;;;5064199;28;20096;-43
2023/10/07 02:24:35;;;;;;;12.68;3.00;;;16.50;99.90;;;;;;5077000;28;20131;-43
2023/10/07 02:27:04;;;;;;;10.48;2.53;;;16.50;99.90;;;;;;5081430;28;20130;-43
2023/10/07 02:29:30;;;;;;;7.93;2.30;;;16.50;99.90;;;;;;5083684;28;20554;-42
2023/10/07 02:32:14;;;;;;;9.02;2.50;;;16.50;99.90;;;;;;5084115;28;20051;-43
2023/10/07 02:35:01;;;;;;;13.57;2.85;;;16.60;99.90;;;;;;5069874;28;20520;-43
2023/10/07 02:37:30;;;;;;;13.05;3.00;;;16.60;99.90;;;;;;5074613;28;20052;-43
2023/10/07 02:39:56;;;;;;;8.82;2.70;;;16.60;99.90;;;;;;5072612;28;20063;-43
2023/10/07 02:42:24;;;;;;;8.73;3.50;;;16.60;99.90;;;;;;5084905;28;20052;-43
2023/10/07 02:45:00;;;;;;;8.90;2.63;;;16.70;99.90;;;;;;5077386;28;20119;-42
2023/10/07 02:47:30;;;;;;;8.00;2.70;;;16.70;99.90;;;;;;5079773;28;20047;-43
2023/10/07 02:50:00;;;;;;;9.75;2.33;;;16.70;99.90;;;;;;5075186;28;20484;-41
2023/10/07 02:52:34;;;;;;;8.15;2.83;;;16.70;99.90;;;;;;5082448;28;20500;-43
2023/10/07 02:57:45;;;;;;;8.15;2.60;;;16.70;99.90;;;;;;5075204;28;20058;-43
2023/10/07 03:00:29;;;;;;;11.02;3.28;;;16.70;99.90;;;;;;5079928;28;20044;-42
2023/10/07 03:03:10;;;;;;;9.73;2.53;;;16.70;99.90;;;;;;5072132;28;22070;-41
2023/10/07 03:05:43;;;;;;;8.00;2.65;;;16.70;99.90;;;;;;5074051;28;20057;-43
2023/10/07 03:08:19;;;;;;;9.63;2.40;;;16.70;99.90;;;;;;5080751;28;20047;-41
2023/10/07 03:13:38;;;;;;;8.57;2.80;;;16.70;99.90;;;;;;5070339;28;20061;-43
2023/10/07 03:16:59;;;;;;;8.88;2.83;;;16.70;99.90;;;;;;5088807;28;20059;-43
2023/10/07 03:21:54;;;;;;;13.05;2.95;;;16.60;99.90;;;;;;5083761;28;20052;-42
2023/10/07 03:24:28;;;;;;;11.30;2.45;;;16.60;99.90;;;;;;5051071;28;20057;-43
2023/10/07 03:27:05;;;;;;;11.23;3.70;;;16.60;99.90;;;;;;5056398;28;21577;-42
2023/10/07 03:29:36;;;;;;;10.05;2.67;;;16.60;99.90;;;;;;5058001;28;20498;-43
2023/10/07 03:32:12;;;;;;;7.97;2.58;;;16.60;99.90;;;;;;5064565;28;20058;-43
2023/10/07 03:34:42;;;;;;;12.30;2.75;;;16.60;99.90;;;;;;5054687;28;20893;-41
2023/10/07 03:39:55;;;;;;;12.80;2.60;;;16.70;99.90;;;;;;5045357;28;20107;-43
2023/10/07 03:42:22;;;;;;;12.27;2.60;;;16.60;99.90;;;;;;5054125;28;20098;-46
2023/10/07 03:44:49;;;;;;;14.73;3.20;;;16.70;99.90;;;;;;5057994;28;20088;-43
2023/10/07 03:47:15;;;;;;;15.40;2.85;;;16.70;99.90;;;;;;5044405;28;20084;-43
2023/10/07 03:49:41;;;;;;;12.35;2.80;;;16.70;99.90;;;;;;5040455;28;20118;-43
2023/10/07 03:52:09;;;;;;;17.70;3.00;;;16.70;99.90;;;;;;5053870;28;20167;-43
2023/10/07 03:54:35;;;;;;;15.77;3.10;;;16.70;99.90;;;;;;5048025;28;20056;-44
2023/10/07 03:57:01;;;;;;;12.55;3.10;;;16.70;99.90;;;;;;5065597;28;20056;-43
2023/10/07 03:59:39;;;;;;;9.60;2.53;;;16.70;99.90;;;;;;5056054;28;20135;-43
2023/10/07 04:04:58;;;;;;;10.60;2.70;;;16.70;99.90;;;;;;5043380;28;20509;-43
2023/10/07 04:07:26;;;;;;;10.15;2.85;;;16.80;99.90;;;;;;5061340;28;20148;-43
2023/10/07 04:09:52;;;;;;;8.40;2.20;;;16.80;99.90;;;;;;5050902;28;20131;-44
2023/10/07 04:12:17;;;;;;;10.95;2.35;;;16.90;99.90;;;;;;5053268;28;20136;-43
2023/10/07 04:14:43;;;;;;;6.93;2.55;;;16.80;99.90;;;;;;5037156;28;20147;-43
2023/10/07 04:17:12;;;;;;;8.80;2.40;;;16.80;99.90;;;;;;5046884;28;20396;-42
2023/10/07 04:19:42;;;;;;;11.77;2.20;;;16.90;99.90;;;;;;5045052;28;20076;-42
2023/10/07 04:22:11;;;;;;;9.18;2.10;;;16.90;99.90;;;;;;5060143;28;20677;-42
2023/10/07 04:24:44;;;;;;;13.00;2.22;;;16.90;99.90;;;;;;5059915;28;20056;-33
2023/10/07 04:27:18;;;;;;;10.63;2.67;;;16.90;99.90;;;;;;5065239;28;20512;-33
2023/10/07 04:29:44;;;;;;;9.38;2.25;;;16.90;99.90;;;;;;5074761;28;20048;-33
2023/10/07 04:32:20;;;;;;;8.57;2.33;;;16.90;99.90;;;;;;5067910;28;20059;-39
2023/10/07 04:37:47;;;;;;;7.90;2.55;;;16.80;99.90;;;;;;5064719;28;20059;-34
2023/10/07 04:43:00;;;;;;;8.60;2.30;;;16.80;99.90;;;;;;5059867;28;20182;-35
2023/10/07 04:45:36;;;;;;;9.23;2.50;;;16.80;99.90;;;;;;5061104;28;20131;-34
2023/10/07 04:48:24;;;;;;;11.10;2.83;;;16.80;99.90;;;;;;5040946;28;20060;-34
2023/10/07 04:51:12;;;;;;;13.10;3.40;;;16.70;99.90;;;;;;5075818;28;20044;-34
2023/10/07 04:53:39;;;;;;;9.38;2.92;;;16.70;99.90;;;;;;5067718;28;20147;-34
2023/10/07 04:56:06;;;;;;;11.77;2.35;;;16.70;99.90;;;;;;5075112;28;20134;-34
2023/10/07 04:58:32;;;;;;;11.02;2.45;;;16.70;99.90;;;;;;5067141;28;20502;-34
2023/10/07 05:01:22;;;;;;;12.60;2.63;;;16.60;99.90;;;;;;5066050;28;20040;-34
2023/10/07 05:04:04;;;;;;;11.57;2.47;;;16.60;99.90;;;;;;5064693;28;20054;-33
2023/10/07 05:06:34;;;;;;;9.90;2.67;;;16.60;99.90;;;;;;5050994;28;20083;-34
2023/10/07 05:09:03;;;;;;;12.95;3.00;;;16.60;99.90;;;;;;5064339;28;20847;-34
2023/10/07 05:11:29;;;;;;;11.25;2.60;;;16.60;99.90;;;;;;5069305;28;20054;-34
2023/10/07 05:13:55;;;;;;;8.68;2.70;;;16.60;99.90;;;;;;5045956;28;20545;-34
2023/10/07 05:16:22;;;;;;;14.05;2.30;;;16.50;99.90;;;;;;5058680;28;20048;-34
2023/10/07 05:18:48;;;;;;;8.23;2.50;;;16.50;99.90;;;;;;5063792;28;20487;-34
2023/10/07 05:21:19;;;;;;;6.10;2.35;;;16.50;99.90;;;;;;5067175;28;20056;-34
2023/10/07 05:23:46;;;;;;;11.95;2.60;;;16.50;99.90;;;;;;5066528;28;20048;-34
2023/10/07 05:26:17;;;;;;;15.35;2.75;;;16.50;99.90;;;;;;5068054;28;20052;-34
2023/10/07 05:28:44;;;;;;;11.60;3.15;;;16.50;99.90;;;;;;5067250;28;20079;-34
2023/10/07 05:31:11;;;;;;;9.85;3.33;;;16.40;99.90;;;;;;5057933;28;20049;-34
2023/10/07 05:33:37;;;;;;;8.50;2.75;;;16.50;99.90;;;;;;5062849;28;20048;-34
2023/10/07 05:36:13;;;;;;;12.25;2.40;;;16.40;99.90;;;;;;5061726;28;20056;-34
2023/10/07 05:38:44;;;;;;;10.85;2.90;;;16.40;99.90;;;;;;5062195;28;20141;-34
2023/10/07 05:41:14;;;;;;;12.13;2.78;;;16.40;99.90;;;;;;5059463;28;20063;-34
2023/10/07 05:43:48;;;;;;;12.18;2.70;;;16.40;99.90;;;;;;5067218;28;20055;-34
2023/10/07 05:46:17;;;;;;;11.30;2.75;;;16.40;99.90;;;;;;5058617;28;20052;-34
2023/10/07 05:48:43;;;;;;;14.95;3.10;;;16.40;99.90;;;;;;5057938;28;20464;-34
2023/10/07 05:51:09;;;;;;;10.95;2.08;;;16.40;99.90;;;;;;5062643;28;20583;-34
2023/10/07 05:53:39;;;;;;;9.00;2.47;;;16.40;99.90;;;;;;5043153;28;20139;-34
2023/10/07 05:56:06;;;;;;;13.65;3.00;;;16.50;99.90;;;;;;5057385;28;20052;-34
2023/10/07 05:58:35;;;;;;;9.13;3.30;;;16.50;99.90;;;;;;5060870;28;20052;-33
2023/10/07 06:01:03;;;;;;;10.27;2.72;;;16.50;99.90;;;;;;5062714;28;20494;-32
2023/10/07 06:03:30;;;;;;;16.10;3.42;;;16.50;99.90;;;;;;5063934;28;20124;-34
2023/10/07 06:05:59;;;;;;;9.40;2.40;;;16.50;99.90;;;;;;5042307;28;20051;-33
2023/10/07 06:08:26;;;;;;;10.65;2.80;;;16.60;99.90;;;;;;5052829;28;20048;-33
2023/10/07 06:10:54;;;;;;;5.95;1.92;;;16.50;99.90;;;;;;5061641;28;20088;-33
2023/10/07 06:13:20;;;;;;;11.55;2.70;;;16.60;99.90;;;;;;5062000;28;20041;-34
2023/10/07 06:15:45;;;;;;;16.27;3.58;;;16.60;99.90;;;;;;5068894;28;20493;-33
2023/10/07 06:18:11;;;;;;;12.65;2.58;;;16.60;99.90;;;;;;5048638;28;20049;-36
2023/10/07 06:20:37;;;;;;;17.00;2.63;;;16.60;99.90;;;;;;5065571;28;20121;-35
2023/10/07 06:23:13;;;;;;;10.55;2.92;;;16.60;99.90;;;;;;5041603;28;20078;-33
2023/10/07 06:25:41;;;;;;;9.43;2.65;;;16.60;99.90;;;;;;5043621;28;20053;-33
2023/10/07 06:28:10;;;;;;;15.52;3.13;;;16.60;99.90;;;;;;5057850;28;20049;-33
2023/10/07 06:30:38;;;;;;;13.32;2.63;;;16.60;99.90;;;;;;5074428;28;20135;-33
2023/10/07 06:33:05;;;;;;;7.40;2.38;;;16.60;99.90;;;;;;5063651;28;20378;-33
2023/10/07 06:35:32;;;;;;;11.52;2.75;;;16.70;99.90;;;;;;5070991;28;20044;-34
2023/10/07 06:37:58;;;;;;;8.38;2.22;;;16.60;99.90;;;;;;5065570;28;20392;-34
2023/10/07 06:40:25;;;;;;;12.35;3.15;;;16.60;99.90;;;;;;5065450;28;20051;-34
2023/10/07 06:42:58;;;;;;;10.32;2.88;;;16.70;99.90;;;;;;5062491;28;20036;-35
2023/10/07 06:45:36;;;;;;;9.90;3.08;;;16.70;99.90;;;;;;5066897;28;20068;-34
2023/10/07 06:48:05;;;;;;;11.77;2.85;;;16.70;99.90;;;;;;5047117;28;20086;-34
2023/10/07 06:50:31;;;;;;;14.25;2.63;;;16.70;99.90;;;;;;5064654;28;20143;-32
2023/10/07 06:52:57;;;;;;;10.32;2.85;;;16.70;99.90;;;;;;5065469;28;20443;-34
2023/10/07 06:55:23;;;;;;;13.85;2.80;;;16.70;99.90;;;;;;5064275;28;20124;-34
2023/10/07 06:57:56;;;;;;;36.08;6.63;;;16.70;99.90;;;;;;5048752;28;20046;-34
2023/10/07 07:00:23;;;;;;;10.43;2.60;;;16.70;99.90;;;;;;5065146;28;20063;-34
2023/10/07 07:02:59;;;;;;;14.20;2.90;;;16.80;99.90;;;;;;5064261;28;20144;-34
2023/10/07 07:05:26;;;;;;;11.77;2.97;;;16.80;99.90;;;;;;5046184;28;20516;-41
2023/10/07 07:07:54;;;;;;;7.43;2.30;;;16.90;99.90;;;;;;5058798;28;20153;-34
2023/10/07 07:10:27;;;;;;;14.10;2.80;;;16.90;99.90;;;;;;5050039;28;20138;-36
2023/10/07 07:13:18;;;;;;;10.02;2.60;;;16.90;99.90;;;;;;5038839;28;20060;-36
2023/10/07 07:15:45;;;;;;;9.75;3.08;;;17.00;99.90;;;;;;5057044;28;20049;-40
2023/10/07 07:20:49;;;;;;;21.20;3.38;;;17.10;99.90;;;;;;5064517;28;20052;-36
2023/10/07 07:23:21;;;;;;;15.10;3.08;;;17.10;99.90;;;;;;5067488;28;20060;-35
2023/10/07 07:26:21;;;;;;;7.28;2.30;;;17.20;99.90;;;;;;5077838;28;20817;-35
2023/10/07 07:28:43;;;;;;;14.68;2.95;;;17.30;99.90;;;;;;5070695;28;20044;-34
2023/10/07 07:31:19;;;;;;;20.23;4.15;;;17.40;99.90;;;;;;5076207;28;20051;-34
2023/10/07 07:33:48;;;;;;;14.07;2.63;;;17.50;99.90;;;;;;5084825;28;20048;-33
2023/10/07 07:38:46;;;;;;;6.75;2.42;;;17.50;99.90;;;;;;5079690;28;20150;-33
2023/10/07 07:42:00;;;;;;;9.73;2.30;;;17.50;99.90;;;;;;5067784;28;20094;-33
2023/10/07 07:44:00;;;;;;;10.75;2.50;;;17.50;99.90;;;;;;5068327;28;20497;-33
2023/10/07 07:46:29;;;;;;;10.75;2.47;;;17.50;99.90;;;;;;5078750;28;20050;-34
2023/10/07 07:48:56;;;;;;;9.73;2.53;;;17.50;99.90;;;;;;5072983;28;20500;-33
2023/10/07 07:51:25;;;;;;;12.07;2.95;;;17.50;99.90;;;;;;5083676;28;20048;-36
2023/10/07 07:53:52;;;;;;;13.70;2.60;;;17.50;99.90;;;;;;5053926;28;20048;-36
2023/10/07 07:56:22;;;;;;;9.65;1.98;;;17.50;99.90;;;;;;5060457;28;20048;-36
2023/10/07 07:58:48;;;;;;;16.02;2.63;;;17.50;99.90;;;;;;5059848;28;20507;-34
2023/10/07 08:01:28;;;;;;;13.80;3.00;;;17.60;99.90;;;;;;5065769;28;20131;-34
2023/10/07 08:03:55;;;;;;;13.30;3.25;;;17.60;99.90;;;;;;5066116;28;20048;-34
2023/10/07 08:06:21;;;;;;;10.20;2.30;;;17.70;99.90;;;;;;5083978;28;20854;-35
2023/10/07 08:08:53;;;;;;;8.77;2.30;;;17.80;99.90;;;;;;5084435;28;20185;-34
2023/10/07 08:11:19;;;;;;;7.22;2.25;;;17.80;99.90;;;;;;5080014;28;20044;-34
2023/10/07 08:13:45;;;;;;;15.63;2.65;;;17.80;99.90;;;;;;5078166;28;20047;-36
2023/10/07 08:16:19;;;;;;;7.72;2.53;;;17.80;99.90;;;;;;5090250;28;20066;-34
2023/10/07 08:18:48;;;;;;;7.07;1.92;;;17.80;99.90;;;;;;5058619;28;20052;-34
2023/10/07 08:21:14;;;;;;;8.27;2.15;;;18.00;99.90;;;;;;5069675;28;20054;-35
2023/10/07 08:23:44;;;;;;;7.78;2.35;;;18.00;99.90;;;;;;5074278;28;20047;-34
2023/10/07 08:26:11;;;;;;;11.93;2.50;;;18.10;99.90;;;;;;5058689;28;20060;-34
2023/10/07 08:28:45;;;;;;;8.48;2.10;;;18.10;99.90;;;;;;5060698;28;20039;-35
2023/10/07 08:31:14;;;;;;;9.38;2.30;;;18.20;99.90;;;;;;5055636;28;20095;-34
2023/10/07 08:33:41;;;;;;;9.65;2.38;;;18.20;99.90;;;;;;5078356;28;21344;-34
2023/10/07 08:36:07;;;;;;;8.82;2.58;;;18.30;99.90;;;;;;5079971;28;20050;-34
2023/10/07 08:38:50;;;;;;;6.97;1.85;;;18.40;99.90;;;;;;5066535;28;20131;-35
2023/10/07 08:41:18;;;;;;;8.63;2.10;;;18.50;99.90;;;;;;5081338;28;20151;-34
2023/10/07 08:43:45;;;;;;;9.40;2.38;;;18.70;99.90;;;;;;5065053;28;20045;-34
2023/10/07 08:46:16;;;;;;;10.90;2.42;;;18.70;99.90;;;;;;5071676;28;20099;-33
2023/10/07 08:48:50;;;;;;;8.38;1.83;;;18.80;99.90;;;;;;5074947;28;20385;-33
2023/10/07 08:51:21;;;;;;;11.15;1.58;;;18.80;99.90;;;;;;5082299;28;20055;-35
2023/10/07 08:53:47;;;;;;;8.70;3.15;;;18.90;99.90;;;;;;5065169;28;20048;-36
2023/10/07 08:56:17;;;;;;;11.35;2.63;;;18.90;99.90;;;;;;5071743;28;20080;-33
2023/10/07 08:58:44;;;;;;;6.70;1.85;;;18.90;99.90;;;;;;5086463;28;20173;-36
2023/10/07 09:01:19;;;;;;;8.13;2.00;;;18.90;99.90;;;;;;5064107;28;20075;-35
2023/10/07 09:03:56;;;;;;;6.90;1.90;;;18.90;99.90;;;;;;5064636;28;20075;-35
2023/10/07 09:06:27;;;;;;;6.72;1.70;;;18.90;99.90;;;;;;5071829;28;20048;-35
2023/10/07 09:08:53;;;;;;;5.70;1.48;;;18.80;99.90;;;;;;5083231;28;20052;-35
2023/10/07 09:11:19;;;;;;;13.25;1.85;;;18.90;99.90;;;;;;5084431;28;20101;-34
2023/10/07 09:13:47;;;;;;;6.45;1.85;;;18.90;99.90;;;;;;5066417;28;20048;-35
2023/10/07 09:16:13;;;;;;;16.73;2.50;;;19.00;99.90;;;;;;5081559;28;20550;-33
2023/10/07 09:18:41;;;;;;;6.85;2.00;;;19.10;99.90;;;;;;5083818;28;20139;-41
2023/10/07 09:21:18;;;;;;;6.20;1.50;;;19.20;99.90;;;;;;5058767;28;20494;-36
2023/10/07 09:23:58;;;;;;;11.50;1.70;;;19.30;99.90;;;;;;5072396;28;20044;-35
2023/10/07 09:26:33;;;;;;;8.40;2.15;;;19.30;99.90;;;;;;5082485;28;20101;-35
2023/10/07 09:29:16;;;;;;;8.70;2.40;;;19.30;99.90;;;;;;5074374;28;20048;-35
2023/10/07 09:31:56;;;;;;;10.23;1.95;;;19.40;99.90;;;;;;5075432;28;20047;-36
2023/10/07 09:34:41;;;;;;;9.20;1.67;;;19.40;99.90;;;;;;5070053;28;20121;-35
2023/10/07 09:37:20;;;;;;;6.93;1.45;;;19.50;99.90;;;;;;5052998;28;20047;-34
2023/10/07 09:40:19;;;;;;;10.27;1.80;;;19.50;99.90;;;;;;5066123;28;20055;-35
2023/10/07 09:42:58;;;;;;;8.57;1.80;;;19.60;99.90;;;;;;5068988;28;20051;-35
2023/10/07 09:45:32;;;;;;;15.27;2.40;;;19.70;99.90;;;;;;5070283;28;20076;-37
2023/10/07 09:48:00;;;;;;;8.75;2.15;;;19.80;99.90;;;;;;5065740;28;20395;-36
2023/10/07 09:50:33;;;;;;;9.57;1.98;;;19.80;99.90;;;;;;5058268;28;20048;-36
2023/10/07 09:53:15;;;;;;;11.07;1.80;;;19.80;99.90;;;;;;5064878;28;20293;-33
2023/10/07 09:56:00;;;;;;;5.65;1.70;;;19.70;99.90;;;;;;5077598;28;20129;-36
2023/10/07 09:58:41;;;;;;;10.45;1.70;;;19.60;99.90;;;;;;5074440;28;20040;-34
2023/10/07 10:01:37;;;;;;;7.40;2.20;;;19.50;99.90;;;;;;5082215;28;20035;-40
2023/10/07 10:04:39;;;;;;;9.60;2.00;;;19.30;99.90;;;;;;5083872;28;20048;-35
2023/10/07 10:07:25;;;;;;;9.23;1.77;;;19.20;99.90;;;;;;5077260;28;20518;-33
2023/10/07 10:10:08;;;;;;;7.50;2.20;;;19.10;99.90;;;;;;5068093;28;20090;-35
2023/10/07 10:18:31;;;;;;;9.38;1.92;;;19.10;99.90;;;;;;5086859;28;20576;-35
2023/10/07 10:21:09;;;;;;;10.70;1.85;;;19.10;99.90;;;;;;5083576;28;20051;-35
2023/10/07 10:23:37;;;;;;;8.15;2.17;;;19.10;99.90;;;;;;5071345;28;20139;-36
2023/10/07 10:26:24;;;;;;;8.82;2.10;;;19.10;99.90;;;;;;5082101;28;20117;-36
2023/10/07 10:29:03;;;;;;;8.15;2.33;;;19.10;99.90;;;;;;5068558;28;20048;-36
2023/10/07 10:31:36;;;;;;;9.32;2.00;;;19.10;99.90;;;;;;5070949;28;20102;-36
2023/10/07 10:34:08;;;;;;;6.40;1.73;;;19.10;99.90;;;;;;5056598;28;20539;-36
2023/10/07 10:36:42;;;;;;;10.52;1.75;;;19.10;99.90;;;;;;5061481;28;20660;-34
2023/10/07 10:39:18;;;;;;;7.70;2.15;;;19.30;99.90;;;;;;5074280;28;20052;-35
2023/10/07 10:41:45;;;;;;;10.35;2.30;;;19.40;99.90;;;;;;5068939;28;20142;-33
2023/10/07 10:44:12;;;;;;;9.23;2.13;;;19.40;99.90;;;;;;5052105;28;20517;-36
2023/10/07 10:46:46;;;;;;;9.45;2.08;;;19.40;99.90;;;;;;5062132;28;20059;-36
2023/10/07 10:49:20;;;;;;;9.43;2.70;;;19.40;99.90;;;;;;5072396;28;20067;-35
2023/10/07 10:51:50;;;;;;;8.45;2.17;;;19.40;99.90;;;;;;5056350;28;20049;-35
2023/10/07 10:54:20;;;;;;;8.70;1.88;;;19.40;99.90;;;;;;5070220;28;20054;-35
2023/10/07 10:56:57;;;;;;;6.65;2.50;;;19.30;99.90;;;;;;5073450;28;20062;-34
2023/10/07 10:59:43;;;;;;;9.82;2.30;;;19.40;99.90;;;;;;5075582;28;20053;-37
2023/10/07 11:02:27;;;;;;;7.22;1.95;;;19.50;99.90;;;;;;5065214;28;20055;-35
2023/10/07 11:04:55;;;;;;;11.80;2.50;;;19.50;99.90;;;;;;5082799;28;20045;-36
2023/10/07 11:07:25;;;;;;;8.13;2.50;;;19.50;99.90;;;;;;5072221;28;20056;-35
2023/10/07 11:09:52;;;;;;;8.98;2.20;;;19.60;99.90;;;;;;5073802;28;20133;-35
2023/10/07 11:12:18;;;;;;;8.02;1.92;;;19.60;99.90;;;;;;5066056;28;20062;-36
2023/10/07 11:14:48;;;;;;;6.72;2.08;;;19.70;99.90;;;;;;5075273;28;20048;-36
2023/10/07 11:17:15;;;;;;;10.40;2.20;;;19.60;99.90;;;;;;5078855;28;20043;-35
2023/10/07 11:19:51;;;;;;;9.73;2.35;;;19.70;99.90;;;;;;5082506;28;20052;-39
2023/10/07 11:22:21;;;;;;;10.75;2.28;;;19.60;99.90;;;;;;5081693;28;20047;-35
2023/10/07 11:24:50;;;;;;;7.05;2.03;;;19.70;99.90;;;;;;5081408;28;20048;-35
2023/10/07 11:27:17;;;;;;;9.90;2.63;;;19.90;99.90;;;;;;5076894;28;20102;-35
2023/10/07 11:29:43;;;;;;;13.35;2.40;;;20.10;99.90;;;;;;5073070;28;20055;-39
2023/10/07 11:32:10;;;;;;;7.70;1.98;;;20.30;99.90;;;;;;5063584;28;20052;-35
2023/10/07 11:34:38;;;;;;;7.72;1.92;;;20.40;99.90;;;;;;5083590;28;20498;-34
2023/10/07 11:37:09;;;;;;;7.68;1.58;;;20.40;99.90;;;;;;5076308;28;20052;-34
2023/10/07 11:39:44;;;;;;;8.60;2.10;;;20.40;99.90;;;;;;5074342;28;20043;-34
2023/10/07 11:42:14;;;;;;;7.15;2.22;;;20.50;99.90;;;;;;5073123;28;20458;-34
2023/10/07 11:44:41;;;;;;;6.93;2.35;;;20.60;99.90;;;;;;5054506;28;20072;-33
2023/10/07 11:47:08;;;;;;;9.50;2.30;;;20.50;99.90;;;;;;5062841;28;20109;-33
2023/10/07 11:49:36;;;;;;;9.52;2.45;;;20.40;99.90;;;;;;5064250;28;20118;-34
2023/10/07 11:52:05;;;;;;;12.75;2.22;;;20.40;99.90;;;;;;5061816;28;20058;-34
2023/10/07 11:54:34;;;;;;;9.50;2.13;;;20.30;99.90;;;;;;5074548;28;20055;-34
2023/10/07 11:57:02;;;;;;;10.02;2.33;;;20.20;99.90;;;;;;5075758;28;20048;-34
2023/10/07 11:59:28;;;;;;;6.47;1.55;;;20.10;99.90;;;;;;5066948;28;20554;-34
2023/10/07 12:01:54;;;;;;;12.45;2.78;;;20.30;99.90;;;;;;5072617;28;20056;-34
2023/10/07 12:04:21;;;;;;;8.95;2.22;;;20.50;99.90;;;;;;5055309;28;20106;-34
2023/10/07 12:06:50;;;;;;;9.57;2.28;;;20.60;99.90;;;;;;5085725;28;20539;-34
2023/10/07 12:09:20;;;;;;;9.93;1.95;;;20.60;99.90;;;;;;5078388;28;20147;-34
2023/10/07 12:11:45;;;;;;;8.10;2.03;;;20.60;99.90;;;;;;5079298;28;20063;-34
2023/10/07 12:14:13;;;;;;;6.90;1.80;;;20.80;99.90;;;;;;5071886;28;20509;-34
2023/10/07 12:16:38;;;;;;;8.25;2.10;;;20.80;99.90;;;;;;5087526;28;20048;-34
2023/10/07 12:19:04;;;;;;;8.25;2.42;;;20.80;99.90;;;;;;5077586;28;20409;-34
2023/10/07 12:21:30;;;;;;;10.75;2.60;;;20.90;99.90;;;;;;5084276;28;20411;-36
2023/10/07 12:23:56;;;;;;;9.55;2.35;;;21.00;99.90;;;;;;5060978;28;20051;-40
2023/10/07 12:26:22;;;;;;;11.90;2.00;;;21.30;99.90;;;;;;5064647;28;20358;-35
2023/10/07 12:28:52;;;;;;;7.03;2.25;;;21.20;99.90;;;;;;5062153;28;20062;-35
2023/10/07 12:31:20;;;;;;;9.05;2.30;;;21.10;99.90;;;;;;5060676;28;20056;-34
2023/10/07 12:33:46;;;;;;;7.78;2.60;;;20.90;99.90;;;;;;5045316;28;20128;-35
2023/10/07 12:36:15;;;;;;;8.60;2.70;;;20.70;99.90;;;;;;5060230;28;20160;-34
2023/10/07 12:38:41;;;;;;;10.65;2.33;;;20.60;99.90;;;;;;5066413;28;20233;-35
2023/10/07 12:41:07;;;;;;;8.43;2.15;;;20.40;99.90;;;;;;5064845;28;20139;-35
2023/10/07 12:43:34;;;;;;;9.10;2.20;;;20.50;99.90;;;;;;5066395;28;20049;-53
2023/10/07 12:46:00;;;;;;;8.35;2.63;;;20.70;99.90;;;;;;5049035;28;20037;-34
2023/10/07 12:48:29;;;;;;;11.27;2.60;;;20.80;99.90;;;;;;5042782;28;20522;-35
2023/10/07 12:50:55;;;;;;;7.22;2.05;;;21.00;99.90;;;;;;5065777;28;20044;-34
2023/10/07 12:53:20;;;;;;;11.07;2.45;;;21.20;99.90;;;;;;5065036;28;20115;-34
2023/10/07 12:55:49;;;;;;;11.75;2.28;;;21.10;99.90;;;;;;5059215;28;20052;-34
2023/10/07 12:58:18;;;;;;;9.82;2.55;;;21.10;99.90;;;;;;5062385;28;20166;-33
2023/10/07 13:00:44;;;;;;;8.38;2.03;;;21.00;99.90;;;;;;5059372;28;20158;-33
2023/10/07 13:03:12;;;;;;;7.38;2.28;;;20.80;99.90;;;;;;5062383;28;20055;-34
2023/10/07 13:05:38;;;;;;;9.90;1.98;;;20.60;99.90;;;;;;5065482;28;20045;-34
2023/10/07 13:08:15;;;;;;;8.60;2.03;;;20.40;99.90;;;;;;5061731;28;20059;-33
2023/10/07 13:10:42;;;;;;;9.77;2.42;;;20.50;99.90;;;;;;5062810;28;22550;-33
2023/10/07 13:13:08;;;;;;;7.72;2.15;;;20.70;99.90;;;;;;5061521;28;20860;-33
2023/10/07 13:15:35;;;;;;;7.32;2.00;;;21.00;99.90;;;;;;5065598;28;20083;-34
2023/10/07 13:18:02;;;;;;;7.22;2.08;;;21.20;99.90;;;;;;5066537;28;20055;-34
2023/10/07 13:20:29;;;;;;;8.30;1.98;;;21.10;99.90;;;;;;5071565;28;20067;-35
2023/10/07 13:23:06;;;;;;;8.52;2.72;;;20.80;99.90;;;;;;5071327;28;20066;-34
2023/10/07 13:25:35;;;;;;;6.20;2.20;;;20.60;99.90;;;;;;5087576;28;20054;-33
2023/10/07 13:28:01;;;;;;;9.82;2.53;;;20.50;99.90;;;;;;5086541;28;20152;-34
2023/10/07 13:30:28;;;;;;;8.23;2.22;;;20.50;99.90;;;;;;5086239;28;20142;-34
2023/10/07 13:32:54;;;;;;;9.93;2.58;;;20.50;99.90;;;;;;5080931;28;20057;-35
2023/10/07 13:35:24;;;;;;;9.07;2.15;;;20.30;99.90;;;;;;5084457;28;20059;-34
2023/10/07 13:37:52;;;;;;;5.03;2.30;;;20.20;99.90;;;;;;5084341;28;20052;-35
2023/10/07 13:40:19;;;;;;;8.00;2.25;;;20.00;99.90;;;;;;5083240;28;20117;-34
2023/10/07 13:42:47;;;;;;;7.78;2.45;;;20.00;99.90;;;;;;5079692;28;20075;-34
2023/10/07 13:45:24;;;;;;;7.10;2.47;;;20.00;99.90;;;;;;5078370;28;20117;-34
2023/10/07 13:47:54;;;;;;;10.40;2.15;;;20.00;99.90;;;;;;5078660;28;20056;-34
2023/10/07 13:50:24;;;;;;;7.30;2.20;;;19.90;99.90;;;;;;5079229;28;20048;-34
2023/10/07 13:52:59;;;;;;;10.30;2.83;;;19.70;99.90;;;;;;5081983;28;20582;-34